Time;durP1;ratioP1;P1;durP2;ratioP2;P2;SDS_P1;SDS_P2;PMS_P1;PMS_P2;Temp;Humidity;BMP_temperature;BMP_pressure;BME280_temperature;BME280_humidity;BME280_pressure;Samples;Min_cycle;Max_cycle;Signal;HPM_P1;HPM_P2
2021/01/18 00:00:56;;;;;;;;;23.75;21.75;;;;;;;;5021387;28;11633;-91
2021/01/18 00:03:25;;;;;;;;;21.25;19.75;;;;;;;;5024158;28;11666;-88
2021/01/18 00:05:52;;;;;;;;;19.25;19.00;;;;;;;;5000995;28;11501;-88
2021/01/18 00:08:19;;;;;;;;;20.25;19.25;;;;;;;;5024154;28;11551;-91
2021/01/18 00:10:45;;;;;;;;;26.00;22.25;;;;;;;;5023431;28;11619;-89
2021/01/18 00:13:12;;;;;;;;;29.75;27.50;;;;;;;;5022382;28;11524;-90
2021/01/18 00:15:39;;;;;;;;;22.75;21.00;;;;;;;;5013953;28;11556;-90
2021/01/18 00:18:06;;;;;;;;;21.00;18.00;;;;;;;;5022385;28;11630;-92
2021/01/18 00:20:34;;;;;;;;;19.50;15.25;;;;;;;;5026587;28;11574;-84
2021/01/18 00:23:00;;;;;;;;;19.00;18.00;;;;;;;;5022650;28;11576;-91
2021/01/18 00:25:28;;;;;;;;;19.00;17.50;;;;;;;;5027851;28;11567;-85
2021/01/18 00:27:54;;;;;;;;;18.00;14.75;;;;;;;;5021071;28;11578;-91
2021/01/18 00:30:23;;;;;;;;;23.75;18.25;;;;;;;;5023372;28;12458;-88
2021/01/18 00:32:52;;;;;;;;;17.50;14.00;;;;;;;;5006361;28;11538;-83
2021/01/18 00:35:20;;;;;;;;;14.25;14.25;;;;;;;;5024306;28;11640;-84
2021/01/18 00:37:50;;;;;;;;;16.50;16.50;;;;;;;;5006772;28;11581;-84
2021/01/18 00:40:19;;;;;;;;;16.00;13.50;;;;;;;;5022809;28;11578;-85
2021/01/18 00:42:46;;;;;;;;;15.25;13.00;;;;;;;;5024008;28;11584;-86
2021/01/18 00:45:14;;;;;;;;;17.00;16.75;;;;;;;;5022344;28;11572;-84
2021/01/18 00:47:42;;;;;;;;;16.75;13.75;;;;;;;;5023436;28;12410;-89
2021/01/18 00:50:10;;;;;;;;;17.75;16.50;;;;;;;;5023333;28;11566;-87
2021/01/18 00:52:39;;;;;;;;;15.00;15.00;;;;;;;;5020614;28;12188;-91
2021/01/18 00:55:09;;;;;;;;;18.75;18.75;;;;;;;;5025598;28;11637;-89
2021/01/18 00:57:36;;;;;;;;;15.67;14.00;;;;;;;;5023087;28;12120;-90
2021/01/18 01:00:04;;;;;;;;;15.00;15.00;;;;;;;;5024315;28;11552;-87
2021/01/18 01:02:31;;;;;;;;;23.67;16.00;;;;;;;;5022730;28;11544;-87
2021/01/18 01:04:58;;;;;;;;;15.50;15.50;;;;;;;;5023207;28;11769;-92
2021/01/18 01:07:25;;;;;;;;;16.00;13.33;;;;;;;;5006659;28;11540;-91
2021/01/18 01:09:52;;;;;;;;;19.25;16.50;;;;;;;;5021446;28;11508;-83
2021/01/18 01:12:22;;;;;;;;;19.67;14.67;;;;;;;;5018835;28;11671;-83
2021/01/18 01:14:50;;;;;;;;;20.33;19.00;;;;;;;;5022022;28;11543;-83
2021/01/18 01:17:17;;;;;;;;;22.00;17.67;;;;;;;;5004157;28;11649;-82
2021/01/18 01:19:44;;;;;;;;;16.33;16.33;;;;;;;;5021171;28;11561;-82
2021/01/18 01:22:10;;;;;;;;;18.33;18.33;;;;;;;;5024784;28;11546;-89
2021/01/18 01:24:37;;;;;;;;;18.00;15.00;;;;;;;;5025000;28;11593;-89
2021/01/18 01:27:05;;;;;;;;;16.33;15.67;;;;;;;;5026881;28;11646;-78
2021/01/18 01:29:32;;;;;;;;;16.00;15.33;;;;;;;;5025052;28;11653;-82
2021/01/18 01:32:00;;;;;;;;;16.67;16.67;;;;;;;;5024244;28;11525;-90
2021/01/18 01:34:27;;;;;;;;;16.33;14.67;;;;;;;;5013231;28;12530;-90
2021/01/18 01:36:53;;;;;;;;;16.33;14.00;;;;;;;;5028732;28;11735;-89
2021/01/18 01:39:20;;;;;;;;;17.00;15.33;;;;;;;;5029727;28;11622;-92
2021/01/18 01:41:47;;;;;;;;;19.33;15.67;;;;;;;;5025617;28;11550;-83
2021/01/18 01:44:14;;;;;;;;;19.33;19.33;;;;;;;;5028273;28;8871;-92
2021/01/18 01:46:42;;;;;;;;;16.67;16.00;;;;;;;;5011081;28;11561;-91
2021/01/18 01:49:09;;;;;;;;;20.33;20.33;;;;;;;;5025867;28;11550;-88
2021/01/18 01:51:37;;;;;;;;;28.33;18.67;;;;;;;;5015796;28;8877;-92
2021/01/18 01:54:04;;;;;;;;;22.33;19.00;;;;;;;;5030463;28;11697;-92
2021/01/18 01:56:31;;;;;;;;;20.33;17.33;;;;;;;;5027419;28;8966;-92
2021/01/18 01:58:59;;;;;;;;;22.33;19.67;;;;;;;;5025212;28;11628;-90
2021/01/18 02:01:26;;;;;;;;;22.33;17.33;;;;;;;;5023174;28;11554;-89
2021/01/18 02:03:58;;;;;;;;;22.00;22.00;;;;;;;;5029252;28;11631;-91
2021/01/18 02:06:25;;;;;;;;;18.67;15.67;;;;;;;;5010778;28;11509;-91
2021/01/18 02:08:52;;;;;;;;;20.33;20.33;;;;;;;;5003814;28;11638;-89
2021/01/18 02:11:20;;;;;;;;;19.25;14.50;;;;;;;;5026734;28;11535;-88
2021/01/18 02:13:59;;;;;;;;;17.00;16.00;;;;;;;;5010658;28;11576;-87
2021/01/18 02:16:28;;;;;;;;;15.25;14.75;;;;;;;;5024384;28;11522;-91
2021/01/18 02:19:43;;;;;;;;;19.75;17.50;;;;;;;;5035372;28;11547;-89
2021/01/18 02:22:36;;;;;;;;;20.75;16.00;;;;;;;;5013459;28;11565;-90
2021/01/18 02:25:26;;;;;;;;;17.25;16.25;;;;;;;;5000734;28;11614;-89
2021/01/18 02:28:31;;;;;;;;;14.25;10.75;;;;;;;;5007499;28;11584;-90
2021/01/18 02:31:37;;;;;;;;;16.00;14.00;;;;;;;;4996917;28;11546;-91
2021/01/18 02:34:40;;;;;;;;;18.50;18.50;;;;;;;;5023155;28;11677;-84
2021/01/18 02:37:38;;;;;;;;;17.25;16.25;;;;;;;;5033238;28;11655;-85
2021/01/18 02:40:07;;;;;;;;;18.25;16.00;;;;;;;;5002988;28;11541;-89
2021/01/18 02:42:39;;;;;;;;;18.25;18.25;;;;;;;;5022522;28;12654;-84
2021/01/18 02:45:09;;;;;;;;;16.75;15.00;;;;;;;;5007698;28;11595;-88
2021/01/18 02:47:37;;;;;;;;;14.50;14.00;;;;;;;;5028159;28;11590;-91
2021/01/18 02:50:05;;;;;;;;;17.75;17.75;;;;;;;;5007038;28;11558;-89
2021/01/18 02:52:39;;;;;;;;;9.50;9.50;;;;;;;;5028249;28;11718;-88
2021/01/18 02:55:07;;;;;;;;;20.75;17.75;;;;;;;;5023833;28;11521;-87
2021/01/18 02:57:37;;;;;;;;;23.00;18.75;;;;;;;;5024634;28;11635;-89
2021/01/18 03:00:07;;;;;;;;;21.50;17.50;;;;;;;;5025683;28;11576;-87
2021/01/18 03:02:46;;;;;;;;;24.25;20.25;;;;;;;;5019921;28;11633;-89
2021/01/18 03:05:31;;;;;;;;;21.75;20.50;;;;;;;;5007450;28;11591;-89
2021/01/18 03:08:05;;;;;;;;;16.75;16.50;;;;;;;;5018587;28;11620;-86
2021/01/18 03:10:38;;;;;;;;;26.00;24.00;;;;;;;;5013552;28;11666;-87
2021/01/18 03:13:07;;;;;;;;;25.50;22.75;;;;;;;;5020779;28;11558;-87
2021/01/18 03:15:39;;;;;;;;;25.50;23.00;;;;;;;;5035666;28;11555;-85
2021/01/18 03:18:08;;;;;;;;;22.75;20.75;;;;;;;;5030233;28;11571;-85
2021/01/18 03:20:35;;;;;;;;;21.00;18.75;;;;;;;;5022985;28;11557;-88
2021/01/18 03:23:14;;;;;;;;;26.25;26.00;;;;;;;;5024681;28;11541;-87
2021/01/18 03:25:49;;;;;;;;;24.00;23.25;;;;;;;;4972266;28;11605;-89
2021/01/18 03:28:16;;;;;;;;;21.50;21.50;;;;;;;;5010139;28;11554;-88
2021/01/18 03:30:43;;;;;;;;;22.25;18.50;;;;;;;;5022273;28;11535;-90
2021/01/18 03:33:10;;;;;;;;;22.00;18.50;;;;;;;;5024068;28;11618;-89
2021/01/18 03:35:37;;;;;;;;;28.75;23.75;;;;;;;;5023624;28;11603;-89
2021/01/18 03:38:05;;;;;;;;;18.00;18.00;;;;;;;;5023005;28;11643;-87
2021/01/18 03:40:32;;;;;;;;;29.67;26.67;;;;;;;;5006918;28;11576;-91
2021/01/18 03:43:01;;;;;;;;;29.33;25.00;;;;;;;;5021931;28;11552;-89
2021/01/18 03:45:29;;;;;;;;;13.50;13.50;;;;;;;;5022736;28;11557;-82
2021/01/18 03:47:56;;;;;;;;;22.33;21.67;;;;;;;;5022732;28;12216;-91
2021/01/18 03:50:23;;;;;;;;;18.00;18.00;;;;;;;;5024251;28;11603;-82
2021/01/18 03:52:55;;;;;;;;;22.33;19.00;;;;;;;;5022885;28;11621;-90
2021/01/18 03:55:23;;;;;;;;;27.67;19.67;;;;;;;;5004286;28;11672;-85
2021/01/18 03:57:52;;;;;;;;;19.00;19.00;;;;;;;;5023450;28;11556;-86
2021/01/18 04:00:20;;;;;;;;;18.33;18.33;;;;;;;;5003384;28;12298;-87
2021/01/18 04:02:48;;;;;;;;;23.33;19.00;;;;;;;;5022412;28;11596;-87
2021/01/18 04:05:23;;;;;;;;;19.33;19.00;;;;;;;;5022274;28;11548;-89
2021/01/18 04:07:50;;;;;;;;;27.00;22.33;;;;;;;;4973965;28;11681;-87
2021/01/18 04:10:18;;;;;;;;;23.00;16.67;;;;;;;;5022265;28;11561;-88
2021/01/18 04:12:48;;;;;;;;;27.33;19.67;;;;;;;;5023585;28;11613;-86
2021/01/18 04:15:16;;;;;;;;;21.33;20.67;;;;;;;;5024620;28;11532;-90
2021/01/18 04:17:44;;;;;;;;;22.33;17.00;;;;;;;;5026630;28;11563;-90
2021/01/18 04:20:12;;;;;;;;;20.50;17.50;;;;;;;;5031511;28;11576;-89
2021/01/18 04:22:48;;;;;;;;;25.00;22.00;;;;;;;;5023879;28;11554;-84
2021/01/18 04:25:17;;;;;;;;;34.67;26.33;;;;;;;;5026793;28;11552;-90
2021/01/18 04:27:49;;;;;;;;;21.50;20.50;;;;;;;;5024581;28;11700;-89
2021/01/18 04:30:17;;;;;;;;;23.50;17.75;;;;;;;;5006243;28;11617;-90
2021/01/18 04:32:44;;;;;;;;;18.25;18.25;;;;;;;;5034598;28;11674;-87
2021/01/18 04:35:11;;;;;;;;;21.50;18.25;;;;;;;;5024406;28;11544;-86
2021/01/18 04:37:38;;;;;;;;;20.00;18.33;;;;;;;;5032928;28;11577;-90
2021/01/18 04:40:06;;;;;;;;;15.75;15.75;;;;;;;;5027151;28;11577;-90
2021/01/18 04:42:34;;;;;;;;;19.00;19.00;;;;;;;;5027658;28;11615;-85
2021/01/18 04:45:02;;;;;;;;;20.25;16.00;;;;;;;;5028825;28;11592;-89
2021/01/18 04:47:30;;;;;;;;;13.00;10.67;;;;;;;;5023992;28;11546;-88
2021/01/18 04:49:57;;;;;;;;;17.33;17.33;;;;;;;;5026258;28;11526;-87
2021/01/18 04:52:38;;;;;;;;;22.00;19.00;;;;;;;;5006414;28;11599;-82
2021/01/18 04:55:11;;;;;;;;;19.33;16.67;;;;;;;;5030983;28;11533;-89
2021/01/18 04:57:43;;;;;;;;;16.00;16.00;;;;;;;;5008155;28;11622;-87
2021/01/18 05:00:14;;;;;;;;;14.00;14.00;;;;;;;;5027766;28;11550;-89
2021/01/18 05:02:41;;;;;;;;;23.67;21.33;;;;;;;;5026021;28;11533;-89
2021/01/18 05:05:21;;;;;;;;;19.00;16.33;;;;;;;;5026025;28;11627;-87
2021/01/18 05:08:05;;;;;;;;;8.33;5.67;;;;;;;;5026298;28;11731;-91
2021/01/18 05:10:32;;;;;;;;;19.67;15.33;;;;;;;;5027146;28;11531;-82
2021/01/18 05:13:03;;;;;;;;;27.33;20.67;;;;;;;;5029198;28;12526;-84
2021/01/18 05:15:30;;;;;;;;;24.33;16.00;;;;;;;;5028162;28;11593;-85
2021/01/18 05:17:59;;;;;;;;;17.33;17.33;;;;;;;;5035914;28;12230;-83
2021/01/18 05:20:27;;;;;;;;;20.33;19.00;;;;;;;;5047734;28;11506;-86
2021/01/18 05:22:55;;;;;;;;;17.67;15.33;;;;;;;;5046651;28;11558;-85
2021/01/18 05:25:23;;;;;;;;;16.67;14.00;;;;;;;;5048039;28;11579;-85
2021/01/18 05:28:00;;;;;;;;;17.00;17.00;;;;;;;;5045907;28;11572;-85
2021/01/18 05:30:28;;;;;;;;;19.67;16.00;;;;;;;;5046465;28;11465;-87
2021/01/18 05:33:09;;;;;;;;;19.33;17.00;;;;;;;;5037093;28;11563;-84
2021/01/18 05:35:38;;;;;;;;;18.33;17.33;;;;;;;;5045963;28;11636;-89
2021/01/18 05:38:09;;;;;;;;;20.33;20.33;;;;;;;;5029697;28;11567;-90
2021/01/18 05:40:41;;;;;;;;;20.33;20.33;;;;;;;;5040297;28;11596;-84
2021/01/18 05:43:08;;;;;;;;;19.00;16.33;;;;;;;;5041504;28;11552;-83
2021/01/18 05:45:37;;;;;;;;;17.00;15.00;;;;;;;;5045321;28;12321;-82
2021/01/18 05:48:07;;;;;;;;;19.00;15.33;;;;;;;;5047122;28;8915;-84
2021/01/18 05:50:35;;;;;;;;;24.33;19.67;;;;;;;;5008850;28;8880;-85
2021/01/18 05:53:04;;;;;;;;;17.33;17.33;;;;;;;;5050828;28;9629;-87
2021/01/18 05:55:32;;;;;;;;;18.00;18.00;;;;;;;;5055800;28;8836;-90
2021/01/18 05:58:00;;;;;;;;;15.33;15.33;;;;;;;;5044745;28;8883;-89
2021/01/18 06:00:29;;;;;;;;;17.33;17.33;;;;;;;;5046365;28;8860;-86
2021/01/18 06:02:57;;;;;;;;;19.00;17.33;;;;;;;;5045316;28;8856;-79
2021/01/18 06:05:27;;;;;;;;;18.67;18.67;;;;;;;;5045104;28;11551;-90
2021/01/18 06:07:54;;;;;;;;;15.33;15.33;;;;;;;;5027165;28;8939;-93
2021/01/18 06:10:33;;;;;;;;;22.00;21.33;;;;;;;;5047329;28;9637;-83
2021/01/18 06:13:01;;;;;;;;;18.33;16.67;;;;;;;;5025386;28;9540;-86
2021/01/18 06:15:28;;;;;;;;;22.67;22.00;;;;;;;;5044864;28;9648;-89
2021/01/18 06:17:57;;;;;;;;;19.00;19.00;;;;;;;;5020259;28;8918;-88
2021/01/18 06:20:27;;;;;;;;;16.67;16.67;;;;;;;;5025352;28;8862;-89
2021/01/18 06:22:54;;;;;;;;;21.00;20.33;;;;;;;;5025693;28;8866;-85
2021/01/18 06:25:23;;;;;;;;;17.67;17.67;;;;;;;;5024014;28;9008;-81
2021/01/18 06:27:50;;;;;;;;;25.00;22.33;;;;;;;;5020872;28;8926;-85
2021/01/18 06:30:23;;;;;;;;;22.00;20.67;;;;;;;;5022595;28;8938;-85
2021/01/18 06:32:54;;;;;;;;;25.67;21.67;;;;;;;;5021766;28;8886;-83
2021/01/18 06:35:22;;;;;;;;;19.67;16.33;;;;;;;;5023914;28;8839;-86
2021/01/18 06:37:59;;;;;;;;;22.33;16.67;;;;;;;;5023036;28;12299;-87
2021/01/18 06:40:38;;;;;;;;;17.33;14.33;;;;;;;;5023258;28;11636;-84
2021/01/18 06:43:07;;;;;;;;;23.67;19.67;;;;;;;;5019447;28;8849;-89
2021/01/18 06:45:35;;;;;;;;;19.33;19.00;;;;;;;;5003947;28;8904;-89
2021/01/18 06:48:03;;;;;;;;;20.67;20.67;;;;;;;;5022605;28;11634;-75
2021/01/18 06:50:33;;;;;;;;;17.00;17.00;;;;;;;;5021299;28;11632;-73
2021/01/18 06:53:16;;;;;;;;;21.00;19.00;;;;;;;;5021930;28;11567;-72
2021/01/18 06:56:32;;;;;;;;;17.33;16.67;;;;;;;;5018776;28;12330;-72
2021/01/18 06:59:04;;;;;;;;;17.00;14.67;;;;;;;;5022617;28;11560;-72
2021/01/18 07:01:32;;;;;;;;;22.67;22.67;;;;;;;;5023358;28;11469;-72
2021/01/18 07:04:05;;;;;;;;;31.00;26.00;;;;;;;;5022395;28;11565;-73
2021/01/18 07:06:33;;;;;;;;;17.00;17.00;;;;;;;;5022469;28;11507;-72
2021/01/18 07:09:03;;;;;;;;;25.33;23.67;;;;;;;;5023526;28;12295;-72
2021/01/18 07:11:30;;;;;;;;;24.67;22.00;;;;;;;;5021802;28;11515;-74
2021/01/18 07:13:57;;;;;;;;;14.00;14.00;;;;;;;;5022499;28;11487;-73
2021/01/18 07:16:26;;;;;;;;;17.00;16.50;;;;;;;;5022159;28;11496;-73
2021/01/18 07:18:54;;;;;;;;;23.50;18.75;;;;;;;;5025445;28;12321;-72
2021/01/18 07:21:22;;;;;;;;;16.50;14.00;;;;;;;;5017268;28;12219;-72
2021/01/18 07:23:55;;;;;;;;;31.50;19.25;;;;;;;;5027835;28;11641;-73
2021/01/18 07:26:53;;;;;;;;;14.50;14.25;;;;;;;;5027352;28;11601;-73
2021/01/18 07:29:22;;;;;;;;;111.00;75.67;;;;;;;;5018970;28;11645;-74
2021/01/18 07:31:51;;;;;;;;;20.50;20.50;;;;;;;;5019825;28;8852;-74
2021/01/18 07:34:21;;;;;;;;;24.50;19.50;;;;;;;;5020821;28;11577;-72
2021/01/18 07:36:49;;;;;;;;;18.25;17.00;;;;;;;;5024814;28;11566;-73
2021/01/18 07:39:26;;;;;;;;;22.75;17.50;;;;;;;;5019315;28;11517;-75
2021/01/18 07:41:54;;;;;;;;;22.50;17.75;;;;;;;;5022742;28;11495;-73
2021/01/18 07:44:40;;;;;;;;;23.00;18.00;;;;;;;;5028209;28;12152;-73
2021/01/18 07:47:09;;;;;;;;;21.00;21.00;;;;;;;;5020965;28;11590;-73
2021/01/18 07:49:49;;;;;;;;;18.00;13.50;;;;;;;;5030939;28;11544;-74
2021/01/18 07:52:20;;;;;;;;;16.00;15.25;;;;;;;;5022672;28;12294;-72
2021/01/18 07:54:48;;;;;;;;;17.50;16.50;;;;;;;;5019723;28;11647;-73
2021/01/18 07:57:40;;;;;;;;;18.25;15.50;;;;;;;;5020947;28;11666;-72
2021/01/18 08:00:35;;;;;;;;;17.75;17.75;;;;;;;;5020773;28;11505;-72
2021/01/18 08:03:24;;;;;;;;;15.00;13.25;;;;;;;;5017065;28;12370;-72
2021/01/18 08:06:02;;;;;;;;;16.00;13.25;;;;;;;;5013511;28;11651;-73
2021/01/18 08:08:30;;;;;;;;;26.75;19.75;;;;;;;;5021431;28;11570;-72
2021/01/18 08:11:00;;;;;;;;;15.25;12.25;;;;;;;;5023525;28;11574;-72
2021/01/18 08:13:44;;;;;;;;;22.25;20.00;;;;;;;;5022590;28;11564;-72
2021/01/18 08:16:13;;;;;;;;;22.75;15.75;;;;;;;;5012726;28;11563;-74
2021/01/18 08:18:50;;;;;;;;;20.25;15.50;;;;;;;;5034487;28;11488;-73
2021/01/18 08:21:51;;;;;;;;;22.25;17.00;;;;;;;;5036954;28;11547;-73
2021/01/18 08:24:51;;;;;;;;;20.50;17.75;;;;;;;;5026388;28;11636;-72
2021/01/18 08:27:52;;;;;;;;;8.50;7.25;;;;;;;;5042979;28;11482;-72
2021/01/18 08:30:28;;;;;;;;;20.25;18.00;;;;;;;;5028965;28;11452;-72
2021/01/18 08:32:56;;;;;;;;;16.75;16.75;;;;;;;;5042017;28;11565;-73
2021/01/18 08:35:42;;;;;;;;;20.25;19.25;;;;;;;;5041641;28;11553;-73
2021/01/18 08:38:10;;;;;;;;;14.00;14.00;;;;;;;;5035222;28;11543;-73
2021/01/18 08:40:43;;;;;;;;;20.50;20.50;;;;;;;;5034278;28;11479;-73
2021/01/18 08:43:11;;;;;;;;;14.75;14.75;;;;;;;;5039940;28;11536;-72
2021/01/18 08:45:44;;;;;;;;;14.50;14.50;;;;;;;;5046481;28;11492;-72
2021/01/18 08:48:12;;;;;;;;;14.00;14.00;;;;;;;;5044187;28;11555;-72
2021/01/18 08:50:44;;;;;;;;;14.25;14.25;;;;;;;;5028131;28;11577;-73
2021/01/18 08:53:31;;;;;;;;;16.75;15.00;;;;;;;;5046886;28;11664;-73
2021/01/18 08:56:03;;;;;;;;;13.50;13.50;;;;;;;;5035092;28;11568;-73
2021/01/18 08:58:45;;;;;;;;;10.00;10.00;;;;;;;;5044579;28;11589;-73
2021/01/18 09:01:15;;;;;;;;;15.50;14.75;;;;;;;;5038932;28;11936;-73
2021/01/18 09:03:42;;;;;;;;;17.00;14.25;;;;;;;;5046587;28;11545;-72
2021/01/18 09:06:11;;;;;;;;;24.00;17.00;;;;;;;;5028307;28;11539;-73
2021/01/18 09:08:40;;;;;;;;;18.00;18.00;;;;;;;;5041148;28;11646;-73
2021/01/18 09:11:08;;;;;;;;;21.50;19.50;;;;;;;;5047491;28;11524;-73
2021/01/18 09:13:38;;;;;;;;;23.50;18.00;;;;;;;;5056795;28;11624;-73
2021/01/18 09:16:06;;;;;;;;;15.00;15.00;;;;;;;;5048766;28;11654;-73
2021/01/18 09:18:35;;;;;;;;;15.00;13.50;;;;;;;;5052103;28;11618;-73
2021/01/18 09:21:03;;;;;;;;;13.50;11.50;;;;;;;;5047095;28;12946;-73
2021/01/18 09:23:30;;;;;;;;;18.25;15.00;;;;;;;;5046002;28;11561;-73
2021/01/18 09:26:01;;;;;;;;;17.50;16.00;;;;;;;;5041712;28;11551;-73
2021/01/18 09:28:28;;;;;;;;;23.75;19.00;;;;;;;;5045997;28;11497;-73
2021/01/18 09:30:55;;;;;;;;;18.25;16.75;;;;;;;;5026296;28;11541;-73
2021/01/18 09:33:28;;;;;;;;;29.25;25.75;;;;;;;;5041481;28;11598;-72
2021/01/18 09:35:56;;;;;;;;;18.25;18.25;;;;;;;;5035609;28;11618;-74
2021/01/18 09:38:22;;;;;;;;;20.50;17.75;;;;;;;;5046026;28;11656;-73
2021/01/18 09:40:49;;;;;;;;;27.00;14.75;;;;;;;;5036116;28;11547;-73
2021/01/18 09:43:20;;;;;;;;;33.00;28.75;;;;;;;;5027453;28;11529;-74
2021/01/18 09:45:54;;;;;;;;;29.50;25.25;;;;;;;;5039252;28;11532;-74
2021/01/18 09:48:24;;;;;;;;;31.75;28.50;;;;;;;;5044353;28;11562;-73
2021/01/18 09:51:08;;;;;;;;;34.50;26.00;;;;;;;;5019656;28;11505;-73
2021/01/18 09:53:35;;;;;;;;;26.50;22.25;;;;;;;;5040029;28;12349;-73
2021/01/18 09:56:04;;;;;;;;;33.75;30.25;;;;;;;;5045779;28;11499;-73
2021/01/18 09:58:37;;;;;;;;;29.25;29.00;;;;;;;;5045460;28;12742;-73
2021/01/18 10:01:11;;;;;;;;;30.50;22.25;;;;;;;;5040752;28;11634;-73
2021/01/18 10:03:39;;;;;;;;;22.75;19.00;;;;;;;;5043631;28;11748;-73
2021/01/18 10:06:09;;;;;;;;;17.25;15.25;;;;;;;;5042661;28;11503;-73
2021/01/18 10:08:37;;;;;;;;;16.75;15.00;;;;;;;;5045602;28;11589;-73
2021/01/18 10:11:04;;;;;;;;;10.50;8.50;;;;;;;;5045161;28;11525;-73
2021/01/18 10:13:31;;;;;;;;;10.75;8.00;;;;;;;;5042055;28;11501;-73
2021/01/18 10:16:07;;;;;;;;;11.00;11.00;;;;;;;;5051211;28;11527;-73
2021/01/18 10:18:37;;;;;;;;;13.00;13.00;;;;;;;;5029279;28;11540;-74
2021/01/18 10:21:04;;;;;;;;;12.25;12.00;;;;;;;;5024861;28;11494;-73
2021/01/18 10:23:34;;;;;;;;;11.75;11.75;;;;;;;;5023825;28;11624;-73
2021/01/18 10:26:20;;;;;;;;;8.75;8.75;;;;;;;;5023032;28;11491;-73
2021/01/18 10:28:59;;;;;;;;;14.75;9.50;;;;;;;;5002675;28;11541;-74
2021/01/18 10:31:27;;;;;;;;;8.50;8.50;;;;;;;;5023068;28;11563;-72
2021/01/18 10:34:11;;;;;;;;;8.75;8.00;;;;;;;;5021240;28;11493;-72
2021/01/18 10:36:38;;;;;;;;;13.75;11.75;;;;;;;;5022249;28;11511;-73
2021/01/18 10:39:06;;;;;;;;;6.50;6.50;;;;;;;;5024014;28;11481;-73
2021/01/18 10:41:33;;;;;;;;;11.50;11.50;;;;;;;;5023853;28;11587;-73
2021/01/18 10:44:05;;;;;;;;;10.00;10.00;;;;;;;;5023505;28;11577;-73
2021/01/18 10:46:32;;;;;;;;;14.25;12.00;;;;;;;;5024605;28;11522;-74
2021/01/18 10:49:00;;;;;;;;;10.50;9.50;;;;;;;;5023061;28;11557;-73
2021/01/18 10:51:27;;;;;;;;;11.00;9.50;;;;;;;;5024608;28;11538;-73
2021/01/18 10:53:58;;;;;;;;;7.00;7.00;;;;;;;;5029520;28;11520;-73
2021/01/18 10:56:31;;;;;;;;;13.50;9.25;;;;;;;;5024297;28;11643;-73
2021/01/18 10:58:59;;;;;;;;;9.00;9.00;;;;;;;;5021335;28;12256;-73
2021/01/18 11:01:25;;;;;;;;;8.75;8.75;;;;;;;;5022589;28;11489;-72
2021/01/18 11:03:54;;;;;;;;;6.00;6.00;;;;;;;;5023497;28;11512;-74
2021/01/18 11:06:21;;;;;;;;;7.00;7.00;;;;;;;;5017432;28;11542;-73
2021/01/18 11:08:53;;;;;;;;;9.75;8.00;;;;;;;;5021383;28;11397;-73
2021/01/18 11:11:21;;;;;;;;;10.75;8.50;;;;;;;;5019120;28;11487;-74
2021/01/18 11:13:50;;;;;;;;;7.75;5.75;;;;;;;;5003579;28;12248;-72
2021/01/18 11:16:17;;;;;;;;;6.00;6.00;;;;;;;;5016864;28;11481;-73
2021/01/18 11:18:44;;;;;;;;;9.25;6.00;;;;;;;;5023845;28;11472;-73
2021/01/18 11:21:12;;;;;;;;;11.50;9.50;;;;;;;;5021067;28;12344;-72
2021/01/18 11:23:38;;;;;;;;;7.75;6.00;;;;;;;;5020328;28;11479;-72
2021/01/18 11:26:07;;;;;;;;;5.50;4.75;;;;;;;;5022943;28;11413;-72
2021/01/18 11:28:33;;;;;;;;;7.75;7.25;;;;;;;;5022064;28;11485;-71
2021/01/18 11:31:02;;;;;;;;;9.00;7.25;;;;;;;;5026261;28;11361;-73
2021/01/18 11:33:29;;;;;;;;;9.00;6.00;;;;;;;;5039343;28;11479;-71
2021/01/18 11:35:56;;;;;;;;;5.00;2.50;;;;;;;;5027815;28;11492;-71
2021/01/18 11:38:23;;;;;;;;;10.25;6.25;;;;;;;;5024890;28;11462;-71
2021/01/18 11:40:50;;;;;;;;;10.25;7.50;;;;;;;;5023871;28;11422;-71
2021/01/18 11:43:16;;;;;;;;;8.00;6.75;;;;;;;;5023146;28;11449;-71
2021/01/18 11:45:43;;;;;;;;;9.25;6.75;;;;;;;;5023660;28;11520;-73
2021/01/18 11:48:11;;;;;;;;;6.75;6.00;;;;;;;;5023565;28;11443;-73
2021/01/18 11:50:38;;;;;;;;;6.50;5.75;;;;;;;;5025187;28;11475;-72
2021/01/18 11:53:07;;;;;;;;;5.25;5.25;;;;;;;;5024762;28;11508;-74
2021/01/18 11:55:34;;;;;;;;;6.00;6.00;;;;;;;;5025946;28;11379;-73
2021/01/18 11:58:02;;;;;;;;;9.00;6.50;;;;;;;;5020706;28;11456;-74
2021/01/18 12:00:30;;;;;;;;;7.50;5.25;;;;;;;;5022569;28;11479;-73
2021/01/18 12:02:57;;;;;;;;;8.50;6.25;;;;;;;;5019649;28;11512;-73
2021/01/18 12:05:26;;;;;;;;;6.00;6.00;;;;;;;;5023618;28;11482;-72
2021/01/18 12:07:53;;;;;;;;;10.00;6.00;;;;;;;;5022674;28;11450;-74
2021/01/18 12:10:21;;;;;;;;;6.00;5.25;;;;;;;;5023559;28;11298;-74
2021/01/18 12:12:49;;;;;;;;;5.50;5.50;;;;;;;;5020417;28;11094;-73
2021/01/18 12:15:16;;;;;;;;;6.75;5.75;;;;;;;;5020541;28;11109;-73
2021/01/18 12:17:44;;;;;;;;;3.50;3.50;;;;;;;;4998120;28;11101;-73
2021/01/18 12:20:13;;;;;;;;;12.00;8.25;;;;;;;;5039880;28;10922;-73
2021/01/18 12:22:41;;;;;;;;;7.75;6.25;;;;;;;;5043083;28;10951;-73
2021/01/18 12:25:13;;;;;;;;;7.75;7.75;;;;;;;;5033550;28;11676;-73
2021/01/18 12:27:40;;;;;;;;;6.75;6.75;;;;;;;;5041496;28;11806;-74
2021/01/18 12:30:08;;;;;;;;;5.50;5.50;;;;;;;;5040976;28;11028;-73
2021/01/18 12:32:35;;;;;;;;;7.00;5.25;;;;;;;;5039942;28;10890;-73
2021/01/18 12:35:03;;;;;;;;;6.25;6.25;;;;;;;;5039600;28;11028;-72
2021/01/18 12:37:30;;;;;;;;;6.25;6.00;;;;;;;;5037270;28;11050;-71
2021/01/18 12:39:57;;;;;;;;;8.75;6.50;;;;;;;;5033317;28;11057;-72
2021/01/18 12:42:24;;;;;;;;;6.50;6.00;;;;;;;;5037155;28;11023;-73
2021/01/18 12:44:54;;;;;;;;;7.00;5.75;;;;;;;;5040556;28;10873;-74
2021/01/18 12:47:21;;;;;;;;;6.50;6.25;;;;;;;;5022627;28;10816;-73
2021/01/18 12:49:48;;;;;;;;;6.25;3.50;;;;;;;;5040147;28;10803;-73
2021/01/18 12:52:15;;;;;;;;;5.25;5.25;;;;;;;;5035477;28;10572;-74
2021/01/18 12:54:42;;;;;;;;;5.75;3.00;;;;;;;;5041228;28;11293;-72
2021/01/18 12:57:10;;;;;;;;;5.00;5.00;;;;;;;;5043010;28;10582;-73
2021/01/18 12:59:37;;;;;;;;;3.00;3.00;;;;;;;;5038262;28;10501;-72
2021/01/18 13:02:06;;;;;;;;;6.00;3.00;;;;;;;;5040708;28;10461;-72
2021/01/18 13:04:33;;;;;;;;;4.00;3.00;;;;;;;;5039174;28;11349;-72
2021/01/18 13:07:00;;;;;;;;;5.50;3.00;;;;;;;;5029772;28;10504;-72
2021/01/18 13:09:27;;;;;;;;;5.00;5.00;;;;;;;;5031873;28;10809;-72
2021/01/18 13:11:54;;;;;;;;;3.00;3.00;;;;;;;;5040780;28;10661;-73
2021/01/18 13:14:22;;;;;;;;;3.00;3.00;;;;;;;;5034981;28;10577;-72
2021/01/18 13:16:53;;;;;;;;;5.75;3.00;;;;;;;;5041256;28;10622;-71
2021/01/18 13:19:19;;;;;;;;;2.00;2.00;;;;;;;;5033417;28;10781;-73
2021/01/18 13:21:50;;;;;;;;;6.25;6.25;;;;;;;;5023315;28;11322;-72
2021/01/18 13:24:17;;;;;;;;;2.25;2.25;;;;;;;;5042467;28;10789;-74
2021/01/18 13:26:44;;;;;;;;;4.00;3.00;;;;;;;;5042729;28;10508;-73
2021/01/18 13:29:11;;;;;;;;;5.25;3.00;;;;;;;;5046205;28;10557;-73
2021/01/18 13:31:39;;;;;;;;;2.00;2.00;;;;;;;;5043108;28;10534;-73
2021/01/18 13:34:07;;;;;;;;;1.75;1.75;;;;;;;;5053335;28;11156;-74
2021/01/18 13:36:34;;;;;;;;;2.00;2.00;;;;;;;;5045683;28;10335;-73
2021/01/18 13:39:01;;;;;;;;;6.75;6.75;;;;;;;;5043109;28;10372;-74
2021/01/18 13:41:28;;;;;;;;;2.00;2.00;;;;;;;;5045373;28;10334;-74
2021/01/18 13:43:55;;;;;;;;;4.00;4.00;;;;;;;;5033460;28;10098;-74
2021/01/18 13:46:23;;;;;;;;;2.25;2.25;;;;;;;;5046110;28;10329;-72
2021/01/18 13:48:52;;;;;;;;;2.25;2.25;;;;;;;;5048571;28;10282;-72
2021/01/18 13:51:20;;;;;;;;;5.25;2.50;;;;;;;;5048330;28;10388;-73
2021/01/18 13:53:48;;;;;;;;;2.00;2.00;;;;;;;;5043899;28;10241;-75
2021/01/18 13:56:17;;;;;;;;;2.75;2.75;;;;;;;;5044427;28;10121;-72
2021/01/18 13:58:45;;;;;;;;;3.50;3.50;;;;;;;;5045611;28;10081;-73
2021/01/18 14:01:17;;;;;;;;;4.00;2.25;;;;;;;;5042173;28;10212;-73
2021/01/18 14:03:45;;;;;;;;;5.50;2.00;;;;;;;;5045415;28;10092;-74
2021/01/18 14:06:21;;;;;;;;;2.00;2.00;;;;;;;;5044192;28;10276;-74
2021/01/18 14:08:48;;;;;;;;;5.00;2.00;;;;;;;;5024444;28;10412;-73
2021/01/18 14:11:15;;;;;;;;;4.25;3.00;;;;;;;;5044093;28;10315;-73
2021/01/18 14:13:42;;;;;;;;;3.25;2.25;;;;;;;;5042026;28;10471;-72
2021/01/18 14:16:12;;;;;;;;;4.75;1.75;;;;;;;;5044488;28;10470;-73
2021/01/18 14:18:39;;;;;;;;;2.50;2.50;;;;;;;;5030176;28;10484;-73
2021/01/18 14:21:06;;;;;;;;;5.75;3.00;;;;;;;;5027469;28;10570;-72
2021/01/18 14:23:34;;;;;;;;;2.25;2.25;;;;;;;;5026496;28;10618;-73
2021/01/18 14:26:01;;;;;;;;;3.00;3.00;;;;;;;;5022829;28;11243;-73
2021/01/18 14:28:28;;;;;;;;;3.25;2.50;;;;;;;;5022676;28;10669;-74
2021/01/18 14:30:55;;;;;;;;;3.00;3.00;;;;;;;;5020521;28;10589;-73
2021/01/18 14:33:22;;;;;;;;;4.50;4.50;;;;;;;;5021551;28;10733;-74
2021/01/18 14:35:49;;;;;;;;;5.00;2.75;;;;;;;;5015127;28;11511;-73
2021/01/18 14:38:16;;;;;;;;;3.00;3.00;;;;;;;;5022510;28;10703;-73
2021/01/18 14:40:43;;;;;;;;;3.50;3.50;;;;;;;;5017841;28;10777;-73
2021/01/18 14:43:10;;;;;;;;;2.75;2.75;;;;;;;;5019285;28;10637;-73
2021/01/18 14:45:37;;;;;;;;;5.00;4.50;;;;;;;;5021643;28;10725;-73